Date,TemperatureHighF,TemperatureAvgF,TemperatureLowF,DewpointHighF,DewpointAvgF,DewpointLowF,HumidityHigh,HumidityAvg,HumidityLow,PressureMaxIn,PressureMinIn,WindSpeedMaxMPH,WindSpeedAvgMPH,GustSpeedMaxMPH,PrecipitationSumIn
2013-1-1,30.0,24.3,16.0,12.0,5.4,-2.0,72,46,30,0.00,40.00,18,7,20,0.00
2013-1-2,28.0,23.0,19.0,8.0,1.6,-1.0,60,39,30,0.00,40.00,19,11,23,0.00
2013-1-3,38.0,31.2,18.0,-2.0,-5.4,-9.0,34,21,13,0.00,40.00,13,6,14,0.00
2013-1-4,47.0,38.0,29.0,14.0,6.1,-2.0,42,27,14,0.00,40.00,12,6,15,0.00
2013-1-5,40.0,34.4,28.0,13.0,7.8,-3.0,47,33,21,0.00,40.00,16,6,19,0.00
2013-1-6,49.0,37.9,27.0,5.0,-5.0,-13.0,28,16,10,0.00,40.00,13,5,15,0.00
2013-1-7,53.0,43.2,33.0,7.0,2.0,-1.0,29,18,11,0.00,40.00,14,7,14,0.00
2013-1-8,49.0,43.8,39.0,14.0,11.8,10.0,34,27,21,0.00,40.00,23,15,31,0.00
2013-1-9,54.0,42.6,35.0,14.0,10.5,6.0,35,27,17,0.00,40.00,10,5,12,0.00
2013-1-10,45.0,39.2,37.0,8.0,4.6,2.0,27,23,21,0.00,40.00,21,6,25,0.00
2013-1-11,40.0,33.4,20.0,25.0,13.5,-6.0,69,45,27,0.00,40.00,23,10,28,0.00
2013-1-12,3.0,2.2,1.0,0.0,-0.6,-2.0,89,87,85,0.00,40.00,6,3,8,0.00
2013-1-13,15.0,9.1,1.0,1.0,-0.3,-4.0,87,66,50,0.00,40.00,9,4,11,0.00
2013-1-14,5.0,3.0,0.0,-2.0,-3.5,-6.0,82,73,64,0.00,40.00,9,5,9,0.00
2013-1-15,35.0,28.7,21.0,9.0,2.8,-5.0,35,33,31,0.00,40.00,15,6,18,0.00
2013-1-16,37.0,34.3,29.0,18.0,14.2,12.0,54,43,35,0.00,40.00,14,9,15,0.00
2013-1-17,50.0,35.8,28.0,17.0,13.8,11.0,59,42,20,0.00,40.00,14,7,14,0.00
2013-1-18,47.0,43.8,41.0,0.0,-1.3,-3.0,17,15,12,0.00,40.00,19,10,22,0.00
2013-1-19,57.0,46.3,42.0,0.0,-2.1,-7.0,16,13,6,0.00,40.00,28,15,34,0.00
2013-1-20,46.0,35.2,25.0,15.0,5.6,-5.0,63,37,11,0.00,40.00,34,16,38,0.00
2013-1-21,50.0,35.5,18.0,15.0,5.2,-9.0,86,39,9,0.00,40.00,29,11,33,0.00
2013-1-22,58.0,50.1,46.0,-6.0,-12.2,-19.0,8,7,5,0.00,40.00,24,10,28,0.00
2013-1-23,60.0,53.3,48.0,2.0,-6.8,-15.0,11,8,6,0.00,40.00,8,4,8,0.00
2013-1-24,53.0,49.2,44.0,26.0,11.9,-5.0,42,25,9,0.00,40.00,15,10,20,0.00
2013-1-25,43.0,41.4,40.0,26.0,24.9,24.0,55,51,47,0.00,40.00,8,5,8,0.00
2013-1-26,52.0,42.9,40.0,36.0,26.9,25.0,84,54,34,0.00,40.00,7,4,8,0.00
2013-1-27,55.0,44.8,34.0,34.0,27.2,14.0,82,52,31,0.00,40.00,12,6,14,0.00
2013-1-28,54.0,40.1,32.0,22.0,16.1,13.0,47,37,29,0.00,40.00,11,5,12,0.00
2013-1-29,19.0,17.9,16.0,17.0,14.4,12.0,97,85,73,0.00,40.00,9,4,12,0.00
2013-1-30,35.0,30.1,22.0,13.0,7.9,1.0,43,39,33,0.00,40.00,34,18,41,0.00
2013-1-31,37.0,36.0,33.0,19.0,14.6,11.0,57,42,35,0.00,40.00,20,9,25,0.00
2013-2-1,47.0,39.4,30.0,22.0,15.5,10.0,54,38,24,0.00,40.00,25,10,31,0.00
2013-2-2,56.0,43.5,32.0,16.0,8.8,0.0,52,28,10,0.00,40.00,21,8,25,0.00
2013-2-3,50.0,42.7,33.0,13.0,3.9,-2.0,27,20,13,0.00,40.00,15,6,18,0.00
2013-2-4,45.0,43.1,40.0,12.0,10.3,5.0,27,25,20,0.00,40.00,30,13,37,0.00
2013-2-5,46.0,44.5,42.0,19.0,14.2,11.0,35,29,25,0.00,40.00,19,9,23,0.00
2013-2-6,53.0,49.4,42.0,20.0,18.9,18.0,40,30,25,0.00,40.00,4,2,6,0.00
2013-2-7,44.0,36.8,29.0,31.0,16.6,2.0,94,46,25,0.00,40.00,11,6,14,0.00
2013-2-8,45.0,35.6,31.0,11.0,6.3,2.0,39,29,20,0.00,40.00,8,5,10,0.00
2013-2-9,32.0,27.8,23.0,30.0,22.5,15.0,99,81,55,0.00,40.00,13,6,15,0.00
2013-2-10,31.0,25.4,21.0,21.0,16.6,13.0,91,70,47,0.00,40.00,12,5,14,0.00
2013-2-11,24.0,20.0,16.0,16.0,14.4,8.0,97,79,63,0.00,40.00,12,5,14,0.00
2013-2-12,38.0,27.5,19.0,8.0,-0.4,-6.0,59,33,15,0.00,40.00,19,10,23,0.00
2013-2-13,43.0,36.9,31.0,12.0,8.7,6.0,34,30,21,0.00,40.00,31,19,37,0.00
2013-2-14,38.0,26.1,19.0,23.0,16.3,8.0,98,70,27,0.00,40.00,21,7,24,0.00
2013-2-15,38.0,25.6,14.0,17.0,13.1,8.0,90,62,28,0.00,40.00,15,5,17,0.00
2013-2-16,48.0,48.0,48.0,9.0,9.0,9.0,20,20,20,0.00,40.00,22,22,24,0.00
2013-2-19,40.0,36.0,31.0,8.0,6.6,6.0,33,28,24,0.00,40.00,8,5,10,0.00
2013-2-20,33.0,25.7,19.0,26.0,18.0,15.0,99,74,46,0.00,40.00,12,6,13,0.00
2013-2-21,23.0,17.6,13.0,22.0,16.5,12.0,98,95,83,0.00,40.00,9,4,9,0.00
2013-2-22,31.0,19.5,14.0,19.0,14.2,4.0,97,80,46,0.00,40.00,10,4,11,0.00
2013-2-23,44.0,32.6,22.0,28.0,13.8,0.0,91,48,29,0.00,40.00,19,10,25,0.00
2013-2-24,26.0,23.4,20.0,26.0,23.4,20.0,100,98,97,0.00,40.00,24,13,28,0.00
2013-2-25,38.0,23.2,11.0,19.0,11.2,6.0,98,64,27,0.00,40.00,10,4,12,0.00
2013-2-26,30.0,24.0,19.0,25.0,16.4,7.0,95,73,58,0.00,40.00,15,7,17,0.00
2013-2-27,36.0,24.0,17.0,17.0,8.9,-1.0,79,54,29,0.00,40.00,17,5,21,0.00
2013-2-28,40.0,32.8,25.0,13.0,7.7,-1.0,42,34,22,0.00,40.00,31,16,38,0.00
2013-3-1,47.0,34.9,26.0,21.0,17.0,14.0,65,49,30,0.00,40.00,26,9,33,0.00
2013-3-2,52.0,46.1,42.0,21.0,20.0,18.0,42,35,27,0.00,40.00,23,14,27,0.00
2013-3-3,61.0,52.5,45.0,25.0,19.8,14.0,42,28,17,0.00,40.00,22,8,31,0.00
2013-3-4,47.0,30.5,22.0,27.0,23.2,16.0,94,77,38,0.00,40.00,20,8,26,0.00
2013-3-5,36.0,27.5,17.0,19.0,14.7,6.0,73,58,45,0.00,40.00,9,4,14,0.00
2013-3-6,58.0,41.6,25.0,21.0,15.5,6.0,74,38,15,0.00,40.00,8,5,9,0.00
2013-3-7,61.0,48.1,39.0,23.0,17.1,11.0,40,29,17,0.00,40.00,14,7,18,0.00
2013-3-8,43.0,36.4,31.0,31.0,26.0,18.0,84,67,40,0.00,40.00,9,4,11,0.00
2013-3-9,34.0,32.9,32.0,31.0,30.0,29.0,96,90,83,0.00,40.00,6,5,7,0.00
2013-3-10,44.0,32.8,17.0,18.0,12.1,8.0,67,44,23,0.00,40.00,18,4,25,0.00
2013-3-11,52.0,40.4,30.0,30.0,17.5,11.0,96,43,22,0.00,40.00,28,10,37,0.00
2013-3-12,37.0,33.8,32.0,28.0,26.4,25.0,77,73,68,0.00,40.00,6,3,8,0.00
2013-3-13,62.0,55.6,50.0,22.0,20.1,18.0,30,24,19,0.00,40.00,20,13,25,0.00
2013-3-14,68.0,56.3,48.0,26.0,20.1,14.0,32,24,12,0.00,40.00,17,8,20,0.00
2013-3-15,72.0,61.1,52.0,23.0,18.9,15.0,28,19,13,0.00,40.00,24,13,31,0.00
2013-3-16,53.0,45.0,37.0,33.0,29.5,22.0,77,55,30,0.00,40.00,19,8,20,0.00
2013-3-17,56.0,45.6,34.0,25.0,19.2,11.0,58,36,18,0.00,40.00,29,15,38,0.00
2013-3-18,46.0,37.8,28.0,15.0,9.7,7.0,48,31,20,0.00,40.00,29,16,38,0.00
2013-3-19,50.0,40.9,28.0,17.0,0.9,-13.0,59,23,6,0.00,40.00,29,13,35,0.00
2013-3-20,52.0,35.9,21.0,23.0,16.5,13.0,81,49,22,0.00,40.00,17,4,24,0.00
2013-3-21,49.0,46.5,42.0,28.0,19.2,8.0,44,34,20,0.00,40.00,20,12,25,0.00
2013-3-22,45.0,32.2,28.0,28.0,19.7,14.0,98,62,34,0.00,40.00,23,6,27,0.00
2013-3-23,22.0,16.4,11.0,22.0,15.5,9.0,99,96,92,0.00,40.00,21,13,25,0.00
2013-3-24,25.0,17.2,10.0,16.0,10.4,3.0,96,75,55,0.00,40.00,14,5,16,0.00
2013-3-25,33.0,19.8,10.0,15.0,10.7,6.0,96,70,34,0.00,40.00,8,4,10,0.00
2013-3-26,50.0,33.5,20.0,23.0,13.5,7.0,63,46,28,0.00,40.00,12,3,14,0.00
2013-3-27,52.0,40.0,31.0,36.0,27.7,22.0,75,62,42,0.00,40.00,11,4,12,0.00
2013-3-28,62.0,46.8,35.0,33.0,27.3,23.0,71,49,25,0.00,40.00,12,5,14,0.00
2013-3-29,64.0,51.7,44.0,30.0,26.5,23.0,53,38,23,0.00,40.00,16,9,20,0.00
2013-3-30,63.0,51.6,41.0,37.0,26.5,19.0,84,42,18,0.00,40.00,18,8,20,0.00
2013-3-31,67.0,52.9,37.0,36.0,19.9,6.0,82,36,8,0.00,40.00,18,7,20,0.00
2013-4-1,47.0,38.7,31.0,34.0,29.1,25.0,87,69,50,0.00,40.00,17,9,20,0.00
2013-4-2,37.0,35.3,33.0,34.0,32.6,31.0,99,90,84,0.00,40.00,8,5,10,0.00
2013-4-3,58.0,45.2,34.0,37.0,31.6,24.0,99,64,30,0.00,40.00,18,5,22,0.00
2013-4-4,66.0,50.9,42.0,31.0,26.0,22.0,60,40,19,0.00,40.00,14,7,15,0.00
2013-4-5,67.0,58.3,47.0,36.0,22.2,17.0,63,26,15,0.00,40.00,40,9,52,0.00
2013-4-6,62.0,52.8,43.0,29.0,21.9,18.0,44,30,19,0.00,40.00,21,8,24,0.00
2013-4-7,62.0,51.1,39.0,33.0,25.1,19.0,72,39,19,0.00,40.00,28,13,38,0.00
2013-4-8,58.0,49.2,42.0,34.0,27.6,24.0,67,43,31,0.00,40.00,36,11,48,0.00
2013-4-9,18.0,13.8,9.0,17.0,13.0,7.0,97,95,93,0.00,40.00,9,0,11,0.00
2013-4-10,25.0,17.9,4.0,24.0,14.4,2.0,98,86,72,0.00,40.00,7,3,10,0.00
2013-4-11,45.0,33.3,18.0,33.0,21.4,15.0,95,63,43,0.00,40.00,18,7,22,0.00
2013-4-12,53.0,39.0,33.0,32.0,30.6,21.0,88,73,28,0.00,40.00,19,4,24,0.00
2013-4-13,66.0,54.5,32.0,31.0,22.1,14.0,95,36,13,0.00,40.00,23,8,25,0.00
2013-4-14,50.0,40.1,37.0,37.0,20.8,9.0,94,48,21,0.00,40.00,26,15,30,0.00
2013-4-15,36.0,27.1,20.0,28.0,22.1,12.0,100,85,37,0.00,40.00,17,9,19,0.00
2013-4-16,31.0,25.9,20.0,31.0,25.1,20.0,99,96,85,0.00,40.00,16,6,19,0.00
2013-4-17,28.0,20.8,18.0,27.0,20.0,15.0,99,97,97,0.00,40.00,17,12,20,0.00
2013-4-18,33.0,20.4,12.0,16.0,13.4,6.0,97,79,36,0.00,40.00,15,5,18,0.00
2013-4-19,47.0,41.8,33.0,24.0,16.3,9.0,49,35,29,0.00,40.00,15,6,18,0.00
2013-4-20,53.0,45.9,38.0,34.0,29.5,22.0,65,53,40,0.00,40.00,13,6,14,0.00
2013-4-21,59.0,50.5,40.0,29.0,22.2,18.0,57,34,20,0.00,40.00,13,7,17,0.00
2013-4-22,52.0,32.2,21.0,36.0,26.1,20.0,99,81,47,0.00,40.00,29,10,34,0.00
2013-4-23,31.0,24.0,18.0,31.0,22.2,17.0,100,92,73,0.00,40.00,8,4,10,0.00
2013-4-24,50.0,36.6,23.0,21.0,13.0,7.0,73,40,20,0.00,40.00,18,8,22,0.00
2013-4-25,61.0,48.0,35.0,30.0,15.8,8.0,43,28,14,0.00,40.00,12,6,14,0.00
2013-4-26,64.0,52.5,43.0,22.0,18.9,14.0,41,27,16,0.00,40.00,16,10,17,0.00
2013-4-27,71.0,59.1,48.0,20.0,15.6,10.0,31,19,10,0.00,40.00,21,14,25,0.00
2013-4-28,76.0,64.6,53.0,24.0,19.4,16.0,24,18,12,0.00,40.00,22,13,25,0.00
2013-4-29,75.0,64.0,49.0,35.0,26.9,20.0,53,28,12,0.00,40.00,14,7,17,0.00
2013-4-30,58.0,49.0,37.0,39.0,32.8,21.0,98,56,23,0.00,40.00,20,8,22,0.00
2013-5-1,35.0,26.7,23.0,35.0,26.7,23.0,100,99,98,0.00,40.00,14,9,15,0.00
2013-5-2,42.0,34.9,19.0,23.0,18.8,13.0,96,55,32,0.00,40.00,10,4,11,0.00
2013-5-3,57.0,53.4,44.0,26.0,23.2,20.0,48,30,24,0.00,40.00,10,5,14,0.00
2013-5-4,55.0,46.1,38.0,31.0,26.9,24.0,60,47,35,0.00,40.00,11,7,14,0.00
2013-5-5,53.0,45.7,37.0,29.0,26.4,24.0,64,47,34,0.00,40.00,10,5,12,0.00
2013-5-6,63.0,52.7,44.0,35.0,31.8,29.0,58,45,31,0.00,40.00,10,6,11,0.00
2013-5-7,65.0,56.4,49.0,42.0,34.8,30.0,62,45,26,0.00,40.00,17,8,21,0.00
2013-5-8,52.0,46.9,44.0,44.0,38.6,34.0,92,73,59,0.00,40.00,18,10,20,0.00
2013-5-9,55.0,46.6,43.0,44.0,40.8,36.0,98,81,60,0.00,40.00,18,7,20,0.00
2013-5-10,62.0,50.0,41.0,42.0,33.4,-99.9,72,56,32,0.00,40.00,17,8,20,0.00
2013-5-11,61.0,53.0,45.0,42.0,34.7,-99.9,68,52,38,0.00,40.00,16,8,20,0.00
2013-5-12,75.0,65.2,52.0,35.0,31.7,30.0,51,29,20,0.00,40.00,15,6,17,0.00
2013-5-13,81.0,71.5,64.0,38.0,33.6,30.0,29,24,17,0.00,40.00,19,10,22,0.00
2013-5-14,81.0,69.5,66.0,37.0,33.6,29.0,31,26,14,0.00,40.00,19,14,22,0.00
2013-5-15,78.0,64.4,56.0,49.0,39.8,33.0,74,43,22,0.00,40.00,25,10,38,0.00
2013-5-16,76.0,60.3,54.0,47.0,25.4,-99.9,70,42,22,0.00,40.00,12,6,15,0.00
2013-5-17,85.0,64.8,56.0,38.0,29.1,18.0,47,29,8,0.00,40.00,16,10,20,0.00
2013-5-18,75.0,63.4,55.0,38.0,27.2,18.0,53,26,14,0.00,40.00,24,11,31,0.00
2013-5-19,66.0,58.4,52.0,38.0,27.8,23.0,53,32,20,0.00,40.00,22,14,29,0.00
2013-5-20,61.0,50.5,47.0,45.0,40.5,27.0,91,70,34,0.00,40.00,14,6,16,0.00
2013-5-21,68.0,54.5,44.0,39.0,32.4,26.0,74,46,20,0.00,40.00,22,8,29,0.00
2013-5-22,73.0,57.5,46.0,48.0,35.5,31.0,74,46,23,0.00,40.00,20,7,27,0.00
2013-5-23,69.0,57.8,46.0,49.0,46.3,45.0,97,68,41,0.00,40.00,11,7,14,0.00
2013-5-24,78.0,56.0,49.0,46.0,42.9,39.0,83,64,25,0.00,40.00,17,4,20,0.00
2013-5-25,82.0,72.8,58.0,54.0,34.4,24.0,77,28,11,0.00,40.00,14,9,17,0.00
2013-5-26,82.0,70.3,63.0,25.0,21.5,17.0,20,16,9,0.00,40.00,16,10,17,0.00
2013-5-27,80.0,70.2,58.0,30.0,23.0,17.0,26,17,10,0.00,40.00,17,8,20,0.00
2013-5-28,76.0,64.0,50.0,40.0,27.6,20.0,59,28,12,0.00,40.00,22,7,26,0.00
2013-5-29,60.0,52.8,48.0,48.0,43.8,30.0,94,73,40,0.00,40.00,21,6,26,0.00
2013-5-30,65.0,58.8,50.0,31.0,26.4,19.0,47,30,17,0.00,40.00,31,15,36,0.00
2013-5-31,68.0,59.5,52.0,28.0,17.8,12.0,38,21,11,0.00,40.00,28,16,33,0.00
2013-6-1,66.0,58.7,46.0,37.0,31.4,-99.9,64,39,20,0.00,40.00,17,6,19,0.00
2013-6-2,80.0,62.8,46.0,37.0,33.4,30.0,61,36,16,0.00,40.00,18,6,20,0.00
2013-6-3,87.0,75.9,61.0,31.0,26.0,21.0,23,16,8,0.00,40.00,26,13,32,0.00
2013-6-4,69.0,59.0,49.0,51.0,42.3,22.0,92,57,20,0.00,40.00,22,6,25,0.00
2013-6-5,54.0,49.2,45.0,48.0,45.8,42.0,99,88,77,0.00,40.00,7,3,8,0.00
2013-6-6,76.0,60.7,47.0,46.0,40.0,35.0,84,50,23,0.00,40.00,12,5,14,0.00
2013-6-7,77.0,65.7,54.0,47.0,40.1,36.0,56,40,25,0.00,40.00,12,6,14,0.00
2013-6-8,74.0,68.0,62.0,50.0,41.4,34.0,62,38,25,0.00,40.00,24,8,27,0.00
2013-6-9,87.0,71.4,53.0,43.0,36.9,32.0,58,32,14,0.00,40.00,11,6,14,0.00
2013-6-10,94.0,81.4,68.0,45.0,32.9,30.0,25,17,11,0.00,40.00,24,8,33,0.00
2013-6-11,95.0,83.7,73.0,38.0,25.5,16.0,22,12,5,0.00,40.00,28,12,34,0.00
2013-6-12,88.0,77.0,65.0,44.0,28.4,20.0,35,16,12,0.00,40.00,19,8,22,0.00
2013-6-13,81.0,70.0,54.0,57.0,51.3,37.0,93,54,23,0.00,40.00,25,9,29,0.00
2013-6-14,86.0,75.4,64.0,45.0,37.7,28.0,49,26,12,0.00,40.00,19,10,22,0.00
2013-6-15,77.0,68.1,55.0,49.0,45.7,40.0,62,44,32,0.00,40.00,18,8,22,0.00
2013-6-16,81.0,68.4,59.0,51.0,44.1,35.0,72,43,24,0.00,40.00,24,8,63,0.00
2013-6-17,78.0,67.5,58.0,48.0,40.4,34.0,56,37,22,0.00,40.00,14,7,17,0.00
2013-6-18,72.0,65.0,60.0,52.0,50.0,49.0,68,58,43,0.00,40.00,15,6,20,0.00
2013-6-19,91.0,77.1,59.0,50.0,35.9,14.0,67,29,8,0.00,40.00,16,7,19,0.00
2013-6-20,80.0,69.5,60.0,45.0,24.7,13.0,41,20,10,0.00,40.00,21,8,23,0.00
2013-6-22,82.0,73.7,65.0,47.0,44.9,41.0,49,36,23,0.00,40.00,15,7,19,0.00
2013-6-23,83.0,67.0,57.0,52.0,43.5,35.0,74,44,21,0.00,40.00,14,8,17,0.00
2013-6-24,85.0,72.5,57.0,51.0,40.2,24.0,70,36,12,0.00,40.00,15,7,19,0.00
2013-6-25,86.0,76.0,64.0,38.0,30.1,23.0,27,18,13,0.00,40.00,14,8,15,0.00
2013-6-26,93.0,81.5,68.0,40.0,34.7,33.0,28,19,12,0.00,40.00,13,8,16,0.00
2013-6-27,93.0,82.3,72.0,42.0,36.4,34.0,27,19,13,0.00,40.00,17,8,20,0.00
2013-6-28,88.0,78.1,65.0,56.0,46.9,38.0,68,33,27,0.00,40.00,19,8,23,0.00
2013-6-29,80.0,70.8,62.0,59.0,51.9,46.0,72,52,29,0.00,40.00,16,6,19,0.00
2013-6-30,75.0,67.2,61.0,58.0,53.8,49.0,77,62,42,0.00,40.00,13,7,17,0.00
2013-7-1,77.0,67.9,58.0,55.0,51.0,47.0,89,55,34,0.00,40.00,20,10,24,0.00
2013-7-2,79.0,68.0,58.0,55.0,48.3,42.0,89,51,29,0.00,40.00,16,7,19,0.00
2013-7-3,85.0,72.3,60.0,52.0,45.0,41.0,56,39,21,0.00,40.00,19,8,24,0.00
2013-7-4,88.0,73.9,68.0,47.0,42.5,40.0,40,32,19,0.00,40.00,19,12,23,0.00
2013-7-5,87.0,75.4,66.0,55.0,48.3,43.0,56,38,25,0.00,40.00,17,9,20,0.00
2013-7-6,89.0,77.6,69.0,56.0,46.5,41.0,55,34,18,0.00,40.00,23,13,28,0.00
2013-7-7,84.0,74.8,68.0,54.0,50.1,46.0,55,42,27,0.00,40.00,16,8,20,0.00
2013-7-8,90.0,77.8,66.0,55.0,46.5,41.0,50,34,17,0.00,40.00,15,8,18,0.00
2013-8-22,79.0,79.0,79.0,57.0,57.0,57.0,46,46,46,0.00,40.00,5,5,8,0.00
2013-8-23,81.0,81.0,81.0,52.0,52.0,52.0,36,36,36,0.00,40.00,4,4,5,0.00
2013-8-24,65.0,32.5,65.0,49.0,-25.5,-99.9,56,28,56,0.00,40.00,20,12,23,0.00
2013-8-29,70.0,70.0,70.0,44.0,44.0,44.0,39,39,39,0.00,40.00,11,11,13,0.00
2013-8-31,-200.0,0.0,200.0,-99.9,-99.9,-99.9,0,0,100,0.00,40.00,7,7,8,0.00
2013-9-1,68.0,68.0,68.0,57.0,57.0,57.0,69,69,69,0.00,40.00,5,5,6,0.00
2013-9-2,84.0,84.0,84.0,50.0,50.0,50.0,29,29,29,0.00,40.00,4,4,6,0.00
2013-9-3,93.0,88.0,68.0,49.0,49.0,49.0,48,26,21,0.00,40.00,11,9,14,0.00
2013-9-4,87.0,80.0,73.0,50.0,48.0,46.0,38,32,27,0.00,40.00,9,6,10,0.00
2013-9-5,82.0,75.4,66.0,51.0,48.6,46.0,48,39,34,0.00,40.00,6,3,8,0.00
2013-9-7,-200.0,0.0,200.0,-99.9,-99.9,-99.9,0,0,100,0.00,40.00,3,3,4,0.00
2013-9-9,78.0,64.4,57.0,61.0,51.6,47.0,97,66,37,0.00,40.00,11,6,14,0.00
2013-9-10,62.0,58.3,57.0,59.0,57.1,56.0,99,96,83,0.00,40.00,11,6,12,0.00
2013-9-11,64.0,60.4,58.0,60.0,59.1,57.0,99,95,87,0.00,40.00,7,4,8,0.00
2013-9-12,60.0,58.4,57.0,60.0,57.8,56.0,99,97,94,0.00,40.00,11,6,17,0.00
2013-9-13,72.0,64.5,56.0,61.0,59.2,56.0,100,83,63,0.00,40.00,11,4,13,0.00
2013-9-14,70.0,59.4,57.0,58.0,44.5,-99.9,97,68,48,0.00,40.00,12,6,14,0.00
2013-9-15,58.0,56.9,55.0,56.0,54.8,54.0,100,92,86,0.00,40.00,10,4,13,0.00
2013-9-16,70.0,65.3,58.0,55.0,52.9,48.0,78,64,55,0.00,40.00,12,2,15,0.00
2013-9-17,80.0,74.6,68.0,49.0,43.8,38.0,38,33,22,0.00,40.00,14,9,16,0.00
2013-9-18,66.0,65.1,64.0,44.0,41.3,40.0,46,41,38,0.00,40.00,18,12,23,0.00
2013-9-19,64.0,59.1,54.0,44.0,42.1,40.0,64,53,40,0.00,40.00,18,8,21,0.00
2013-9-20,68.0,58.2,48.0,46.0,43.1,41.0,77,58,42,0.00,40.00,7,4,9,0.00
2013-9-21,81.0,59.2,57.0,42.0,16.2,-99.9,50,28,21,0.00,40.00,12,8,14,0.00
2013-9-22,77.0,66.8,60.0,45.0,40.3,34.0,55,38,29,0.00,40.00,10,8,12,0.00
2013-9-23,63.0,57.2,48.0,50.0,34.4,24.0,99,47,26,0.00,40.00,29,18,37,0.00
2013-9-24,73.0,61.7,55.0,38.0,28.9,22.0,40,29,19,0.00,40.00,15,7,17,0.00
2013-11-2,51.0,51.0,51.0,19.0,19.0,19.0,27,27,27,0.00,40.00,6,6,7,0.00